Terminal Aerodrome Forecast
Issued by NWS

Home | Current Version | Previous Version | Text Only | Print | Product List | Glossary On
Versions: 1 2 3 4 5 6 7 8 9 10 11 12 13 14 15 16 17 18 19 20 21 22 23 24 25 26
090
FTUS43 KICT 211129
TAFRSL
TAF
KRSL 211129Z 2112/2212 01005KT 6SM BR BKN008
     FM211500 17006KT P6SM FEW020
     FM211700 18011KT P6SM SKC=

USA.gov is the U.S. government's official web portal to all federal, state and local government web resources and services.